Time;durP1;ratioP1;P1;durP2;ratioP2;P2;SDS_P1;SDS_P2;PMS_P1;PMS_P2;Temp;Humidity;BMP_temperature;BMP_pressure;BME280_temperature;BME280_humidity;BME280_pressure;Samples;Min_cycle;Max_cycle;Signal;HPM_P1;HPM_P2
2023/01/25 00:01:27;;;;;;;;;45.50;36.75;;;;;6.76;57.42;102960.63;5091752;27;45655;-65
2023/01/25 00:03:53;;;;;;;;;51.25;35.50;;;;;7.11;58.02;103007.63;5093856;27;45339;-65
2023/01/25 00:06:18;;;;;;;;;47.75;38.50;;;;;7.08;57.63;103002.06;5094062;27;45392;-64
2023/01/25 00:08:48;;;;;;;;;41.75;35.00;;;;;7.07;57.35;103002.88;5075174;27;45464;-65
2023/01/25 00:11:15;;;;;;;;;41.50;32.00;;;;;7.14;57.10;103002.56;5093991;27;45548;-65
2023/01/25 00:13:41;;;;;;;;;45.25;37.25;;;;;7.01;57.74;102983.78;5093844;27;45463;-63
2023/01/25 00:16:07;;;;;;;;;52.00;37.25;;;;;7.06;57.64;103000.09;5092298;27;45604;-65
2023/01/25 00:18:33;;;;;;;;;43.25;34.50;;;;;7.08;58.01;103006.44;5069871;27;45562;-63
2023/01/25 00:20:58;;;;;;;;;50.50;37.00;;;;;7.10;57.72;103007.50;5086854;27;46271;-64
2023/01/25 00:23:24;;;;;;;;;34.50;32.25;;;;;6.97;58.02;102979.06;5110532;27;45074;-65
2023/01/25 00:25:56;;;;;;;;;45.75;36.25;;;;;7.09;57.86;103003.91;5112125;27;45307;-63
2023/01/25 00:28:21;;;;;;;;;36.75;31.50;;;;;7.08;57.97;103001.13;5104167;27;45184;-63
2023/01/25 00:30:46;;;;;;;;;50.00;38.00;;;;;7.01;57.76;102999.72;5109922;27;45813;-64
2023/01/25 00:33:14;;;;;;;;;43.00;37.50;;;;;7.04;57.79;103005.28;5109269;27;49208;-64
2023/01/25 00:35:40;;;;;;;;;53.25;33.50;;;;;7.03;57.80;103002.50;5111349;27;44992;-63
2023/01/25 00:38:26;;;;;;;;;39.50;30.25;;;;;7.01;57.56;102983.78;5111054;27;45243;-63
2023/01/25 00:40:51;;;;;;;;;49.00;36.25;;;;;7.05;57.94;102999.19;5104906;27;46349;-64
2023/01/25 00:43:17;;;;;;;;;40.25;32.00;;;;;6.99;57.93;102986.31;5104110;27;45236;-64
2023/01/25 00:45:42;;;;;;;;;45.25;36.50;;;;;6.96;57.80;102977.19;5105381;27;45076;-63
2023/01/25 00:48:08;;;;;;;;;47.50;35.25;;;;;7.09;57.74;103000.34;5110696;27;45150;-63
2023/01/25 00:50:36;;;;;;;;;41.75;34.75;;;;;7.09;58.08;103001.25;5106481;27;45496;-63
2023/01/25 00:53:02;;;;;;;;;48.00;36.00;;;;;7.08;57.94;103001.13;5109894;27;45378;-64
2023/01/25 00:55:27;;;;;;;;;39.00;33.00;;;;;7.09;58.23;102997.69;5091188;27;45439;-63
2023/01/25 00:57:52;;;;;;;;;43.75;30.50;;;;;7.03;57.57;102975.94;5110882;27;45282;-63
2023/01/25 01:00:18;;;;;;;;;44.00;35.50;;;;;7.05;57.72;102993.88;5108556;27;46076;-64
2023/01/25 01:02:43;;;;;;;;;54.50;36.75;;;;;7.00;57.62;102989.94;5109281;27;45100;-64
2023/01/25 01:05:08;;;;;;;;;38.75;30.00;;;;;7.00;58.06;102992.59;5109351;27;45359;-63
2023/01/25 01:07:34;;;;;;;;;41.50;35.75;;;;;7.05;58.33;102983.22;5108142;27;45101;-63
2023/01/25 01:09:59;;;;;;;;;41.50;37.00;;;;;7.03;58.31;102994.53;5109848;27;45585;-65
2023/01/25 01:12:24;;;;;;;;;52.25;34.75;;;;;6.98;58.40;102989.81;5111823;27;45210;-63
2023/01/25 01:14:50;;;;;;;;;43.25;36.00;;;;;6.92;58.03;102988.41;5112302;27;45282;-64
2023/01/25 01:17:15;;;;;;;;;52.00;38.00;;;;;6.90;58.50;102996.25;5112480;27;45081;-65
2023/01/25 01:19:40;;;;;;;;;48.50;37.50;;;;;6.93;58.23;102987.59;5112111;27;45665;-64
2023/01/25 01:22:06;;;;;;;;;38.50;34.25;;;;;6.90;58.43;102977.66;5112375;27;45082;-65
2023/01/25 01:24:32;;;;;;;;;50.25;35.50;;;;;6.92;58.17;102973.38;5111595;27;45330;-64
2023/01/25 01:26:57;;;;;;;;;48.25;36.50;;;;;6.91;58.31;102973.25;5096179;27;45170;-63
2023/01/25 01:29:22;;;;;;;;;42.75;35.25;;;;;6.86;58.38;102972.00;5112184;27;45184;-64
2023/01/25 01:31:52;;;;;;;;;49.50;37.25;;;;;6.90;58.26;102985.63;5111138;27;45137;-65
2023/01/25 01:34:18;;;;;;;;;53.00;35.00;;;;;6.90;58.41;102977.66;5108334;27;45265;-64
2023/01/25 01:36:44;;;;;;;;;53.50;37.50;;;;;6.86;58.28;102972.91;5108736;27;44955;-64
2023/01/25 01:39:10;;;;;;;;;52.50;37.50;;;;;6.97;58.34;102982.63;5111759;27;45045;-63
2023/01/25 01:41:36;;;;;;;;;46.50;29.25;;;;;6.98;58.64;102994.22;5112283;27;45183;-63
2023/01/25 01:44:02;;;;;;;;;47.75;38.00;;;;;6.97;58.27;102982.63;5112222;27;45277;-63
2023/01/25 01:46:36;;;;;;;;;44.25;35.75;;;;;7.04;58.21;102991.09;5108830;27;45322;-64
2023/01/25 01:49:21;;;;;;;;;44.00;33.25;;;;;7.01;58.14;102989.09;5110415;27;45181;-64
2023/01/25 01:51:52;;;;;;;;;42.00;36.75;;;;;7.04;58.14;102993.75;5111695;27;45149;-62
2023/01/25 01:54:18;;;;;;;;;43.25;34.00;;;;;7.02;58.51;102993.63;5111528;27;45004;-65
2023/01/25 01:57:03;;;;;;;;;33.50;33.00;;;;;6.95;58.04;102984.25;5113047;27;45148;-64
2023/01/25 01:59:53;;;;;;;;;49.50;37.25;;;;;7.01;58.17;102992.72;5108966;27;45223;-63
2023/01/25 02:02:19;;;;;;;;;35.50;28.25;;;;;7.08;58.39;102995.81;5114158;27;45183;-63
2023/01/25 02:04:47;;;;;;;;;49.50;38.50;;;;;7.06;58.52;102990.41;5111176;27;45190;-63
2023/01/25 02:07:26;;;;;;;;;44.50;34.75;;;;;7.04;58.04;102996.41;5112311;27;44968;-64
2023/01/25 02:09:51;;;;;;;;;46.75;35.50;;;;;6.96;58.42;102993.13;5111658;27;45029;-64
2023/01/25 02:12:19;;;;;;;;;50.75;36.50;;;;;6.95;58.53;103002.84;5095425;27;45089;-63
2023/01/25 02:14:48;;;;;;;;;42.75;37.25;;;;;6.95;58.65;103007.25;5110571;27;45741;-64
2023/01/25 02:17:14;;;;;;;;;45.25;36.25;;;;;6.88;58.43;102991.63;5103631;27;45071;-64
2023/01/25 02:19:59;;;;;;;;;48.00;34.50;;;;;6.91;58.59;103007.81;5093578;27;47319;-63
2023/01/25 02:22:38;;;;;;;;;44.75;37.00;;;;;6.92;58.52;103002.63;5109491;27;45241;-64
2023/01/25 02:25:12;;;;;;;;;36.75;31.75;;;;;6.86;58.45;102985.28;5113856;27;44953;-64
2023/01/25 02:27:44;;;;;;;;;43.50;38.25;;;;;6.91;58.78;102991.88;5114550;27;45323;-65
2023/01/25 02:30:10;;;;;;;;;51.75;39.25;;;;;6.93;58.78;103003.53;5114258;27;45755;-65
2023/01/25 02:32:36;;;;;;;;;54.25;38.00;;;;;6.87;58.88;102995.09;5113322;27;45225;-64
2023/01/25 02:35:02;;;;;;;;;52.75;38.00;;;;;6.96;58.62;103006.44;5114041;27;45126;-64
2023/01/25 02:37:28;;;;;;;;;49.00;37.75;;;;;6.96;58.57;102998.47;5114144;27;44988;-64
2023/01/25 02:39:53;;;;;;;;;49.25;37.25;;;;;6.94;58.36;102998.34;5094910;27;46399;-64
2023/01/25 02:42:19;;;;;;;;;44.75;36.75;;;;;6.99;58.77;103012.00;5113748;27;45151;-64
2023/01/25 02:44:45;;;;;;;;;50.25;38.25;;;;;7.00;58.60;103001.47;5111423;27;44979;-63
2023/01/25 02:47:11;;;;;;;;;52.75;39.75;;;;;6.94;58.79;103010.72;5113714;27;45881;-64
2023/01/25 02:49:36;;;;;;;;;50.75;35.25;;;;;6.91;58.98;103007.81;5112788;27;45053;-64
2023/01/25 02:52:03;;;;;;;;;59.25;43.50;;;;;6.97;58.99;103005.63;5113763;27;45067;-64
2023/01/25 02:54:29;;;;;;;;;48.00;37.25;;;;;6.96;58.60;103001.13;5111989;27;45225;-64
2023/01/25 02:56:54;;;;;;;;;53.25;37.75;;;;;6.93;59.26;102998.22;5112315;27;45463;-64
2023/01/25 02:59:20;;;;;;;;;46.50;35.00;;;;;6.97;58.99;102995.91;5112637;27;45057;-62
2023/01/25 03:01:46;;;;;;;;;52.75;37.75;;;;;6.95;59.38;102989.56;5109456;27;45323;-63
2023/01/25 03:04:11;;;;;;;;;52.50;37.75;;;;;6.89;59.21;102974.88;5113539;27;45095;-65
2023/01/25 03:06:38;;;;;;;;;50.25;37.75;;;;;6.99;59.72;102988.97;5112822;27;45341;-63
2023/01/25 03:09:05;;;;;;;;;56.50;40.25;;;;;6.86;59.21;102979.97;5108532;27;45577;-63
2023/01/25 03:11:31;;;;;;;;;49.50;36.00;;;;;6.94;59.71;102990.38;5112725;27;45209;-64
2023/01/25 03:13:56;;;;;;;;;56.25;44.25;;;;;6.94;59.81;102993.03;5111262;27;45029;-62
2023/01/25 03:16:22;;;;;;;;;56.75;43.25;;;;;6.93;59.88;102995.56;5110135;27;45020;-62
2023/01/25 03:18:47;;;;;;;;;60.75;43.50;;;;;6.91;59.93;102991.88;5112693;27;45507;-63
2023/01/25 03:21:18;;;;;;;;;51.25;38.75;;;;;6.89;59.89;102994.41;5109430;27;45263;-62
2023/01/25 03:23:45;;;;;;;;;52.50;41.25;;;;;6.85;60.21;103000.31;5112218;27;45621;-64
2023/01/25 03:26:16;;;;;;;;;57.50;39.75;;;;;6.86;60.41;102994.16;5107448;27;45084;-64
2023/01/25 03:28:42;;;;;;;;;58.50;38.25;;;;;6.89;60.28;103001.47;5109835;27;45864;-63
2023/01/25 03:31:11;;;;;;;;;55.25;39.50;;;;;6.85;60.22;102983.41;5113253;27;45384;-63
2023/01/25 03:33:38;;;;;;;;;53.75;39.75;;;;;6.86;60.66;102987.94;5109442;27;46081;-63
2023/01/25 03:36:04;;;;;;;;;50.75;37.25;;;;;6.93;60.58;102988.53;5112145;27;44923;-63
2023/01/25 03:38:30;;;;;;;;;54.00;40.50;;;;;6.89;60.34;102991.75;5110418;27;45854;-64
2023/01/25 03:40:56;;;;;;;;;56.25;43.25;;;;;6.85;60.72;102987.03;5108804;27;45378;-63
2023/01/25 03:43:21;;;;;;;;;46.25;36.25;;;;;6.78;60.98;102985.63;5109760;27;45462;-63
2023/01/25 03:45:54;;;;;;;;;51.00;40.50;;;;;6.81;61.30;102992.88;5110764;27;45306;-64
2023/01/25 03:48:20;;;;;;;;;57.00;41.25;;;;;6.72;61.24;102971.84;5093723;27;47351;-64
2023/01/25 03:50:54;;;;;;;;;56.75;41.75;;;;;6.73;60.82;102987.00;5089936;27;44980;-63
2023/01/25 03:53:30;;;;;;;;;55.00;37.50;;;;;6.72;60.83;102987.78;5109951;27;45179;-63
2023/01/25 03:56:00;;;;;;;;;56.00;38.25;;;;;6.71;61.65;102988.56;5110702;27;44846;-63
2023/01/25 03:58:27;;;;;;;;;54.00;40.75;;;;;6.74;61.62;102982.59;5091421;27;46361;-63
2023/01/25 04:00:57;;;;;;;;;57.00;41.50;;;;;6.72;61.81;102987.78;5110020;27;44906;-64
2023/01/25 04:03:24;;;;;;;;;53.75;39.50;;;;;6.73;61.89;102976.38;5107681;27;45012;-64
2023/01/25 04:05:50;;;;;;;;;52.50;39.75;;;;;6.62;61.59;102959.56;5099884;27;45755;-64
2023/01/25 04:08:15;;;;;;;;;46.00;36.50;;;;;6.73;61.73;102976.38;5093555;27;45452;-65
2023/01/25 04:10:41;;;;;;;;;47.50;38.00;;;;;6.68;61.84;102967.09;5094261;27;45599;-64
2023/01/25 04:13:06;;;;;;;;;53.25;41.50;;;;;6.74;61.68;102979.94;5093696;27;45479;-64
2023/01/25 04:15:32;;;;;;;;;54.00;38.50;;;;;6.73;61.62;102975.41;5091056;27;45598;-64
2023/01/25 04:17:57;;;;;;;;;56.25;42.75;;;;;6.71;61.66;102974.38;5089143;27;45566;-65
2023/01/25 04:20:23;;;;;;;;;53.75;37.75;;;;;6.66;61.96;102967.78;5088372;27;45292;-63
2023/01/25 04:22:48;;;;;;;;;55.25;39.25;;;;;6.70;62.21;102984.09;5093110;27;45425;-64
2023/01/25 04:25:14;;;;;;;;;46.50;36.25;;;;;6.67;61.84;102981.19;5092824;27;45650;-63
2023/01/25 04:27:39;;;;;;;;;57.75;41.75;;;;;6.68;62.62;102980.38;5094016;27;46375;-65
2023/01/25 04:30:05;;;;;;;;;62.25;44.50;;;;;6.68;62.44;102975.06;5092446;27;45358;-64
2023/01/25 04:32:34;;;;;;;;;47.50;37.00;;;;;6.77;62.45;102981.09;5092526;27;45714;-64
2023/01/25 04:34:59;;;;;;;;;58.25;41.00;;;;;6.77;62.38;102981.09;5094488;27;45631;-64
2023/01/25 04:37:25;;;;;;;;;56.75;41.25;;;;;6.67;62.31;102975.88;5094290;27;45468;-64
2023/01/25 04:39:50;;;;;;;;;55.00;40.75;;;;;6.63;62.35;102965.81;5094295;27;45602;-64
2023/01/25 04:42:15;;;;;;;;;46.75;37.25;;;;;6.62;62.36;102967.53;5094262;27;45549;-64
2023/01/25 04:44:41;;;;;;;;;47.75;38.75;;;;;6.64;62.39;102978.28;5093361;27;45579;-64
2023/01/25 04:47:06;;;;;;;;;54.50;37.50;;;;;6.66;62.34;102981.06;5096069;27;46425;-65
2023/01/25 04:49:31;;;;;;;;;56.25;38.75;;;;;6.64;62.31;102975.63;5097353;27;45487;-62
2023/01/25 04:51:57;;;;;;;;;50.75;40.25;;;;;6.64;62.54;102973.91;5097710;27;45510;-63
2023/01/25 04:54:22;;;;;;;;;55.00;43.50;;;;;6.61;62.70;102971.00;5098051;27;45501;-63
2023/01/25 04:56:47;;;;;;;;;60.50;42.50;;;;;6.63;62.78;102966.75;5097176;27;45302;-63
2023/01/25 04:59:12;;;;;;;;;51.75;41.00;;;;;6.63;62.58;102965.81;5086680;27;45312;-63
2023/01/25 05:01:38;;;;;;;;;56.00;39.00;;;;;6.61;62.57;102962.13;5097409;27;45450;-62
2023/01/25 05:04:03;;;;;;;;;51.00;39.00;;;;;6.63;62.63;102972.06;5097636;27;45365;-66
2023/01/25 05:06:29;;;;;;;;;54.25;38.00;;;;;6.63;62.45;102966.75;5095823;27;46041;-65
2023/01/25 05:08:54;;;;;;;;;55.25;37.25;;;;;6.62;62.06;102964.88;5097380;27;45275;-64
2023/01/25 05:11:19;;;;;;;;;56.00;37.50;;;;;6.61;62.61;102962.13;5079028;27;45459;-63
2023/01/25 05:13:44;;;;;;;;;44.25;34.50;;;;;6.63;62.43;102966.75;5097314;27;45598;-63
2023/01/25 05:16:10;;;;;;;;;43.25;36.00;;;;;6.54;62.49;102950.09;5095330;27;46369;-63
2023/01/25 05:18:35;;;;;;;;;48.50;36.00;;;;;6.63;62.22;102965.81;5097391;27;45372;-64
2023/01/25 05:21:00;;;;;;;;;47.75;36.25;;;;;6.66;62.12;102970.44;5095986;27;45602;-64
2023/01/25 05:23:27;;;;;;;;;47.50;36.25;;;;;6.70;62.06;102968.16;5097346;27;45506;-65
2023/01/25 05:28:36;;;;;;;;;47.00;33.25;;;;;6.69;61.17;102960.97;5090888;27;45431;-63
2023/01/25 05:31:05;;;;;;;;;48.75;34.50;;;;;6.67;61.19;102954.63;5096843;27;46325;-64
2023/01/25 05:33:30;;;;;;;;;27.00;26.50;;;;;6.62;62.67;102956.00;5096912;27;45540;-63
2023/01/25 05:35:57;;;;;;;;;44.50;34.50;;;;;6.65;61.56;102953.59;5095077;27;45540;-63
2023/01/25 05:38:23;;;;;;;;;45.25;31.25;;;;;6.60;61.69;102954.94;5095632;27;45705;-63
2023/01/25 05:40:48;;;;;;;;;48.50;35.00;;;;;6.59;62.09;102955.75;5096284;27;45563;-64
2023/01/25 05:43:13;;;;;;;;;40.50;35.50;;;;;6.61;61.86;102956.78;5091377;27;45551;-62
2023/01/25 05:45:39;;;;;;;;;48.50;31.00;;;;;6.63;61.83;102955.19;5094381;27;52988;-64
2023/01/25 05:48:04;;;;;;;;;43.50;32.00;;;;;6.68;61.10;102952.88;5093409;27;45509;-63
2023/01/25 05:50:30;;;;;;;;;47.75;34.00;;;;;6.65;61.46;102958.91;5096457;27;45665;-62
2023/01/25 05:52:55;;;;;;;;;35.00;31.25;;;;;6.62;61.82;102959.56;5095890;27;45363;-63
2023/01/25 05:55:20;;;;;;;;;41.50;31.25;;;;;6.60;61.98;102954.94;5094327;27;45649;-65
2023/01/25 05:57:46;;;;;;;;;42.25;33.75;;;;;6.58;61.52;102946.88;5096304;27;45538;-64
2023/01/25 06:00:12;;;;;;;;;39.25;32.25;;;;;6.64;61.67;102946.41;5090004;27;45341;-63
2023/01/25 06:02:37;;;;;;;;;32.50;22.25;;;;;6.64;61.19;102951.72;5095240;27;45489;-64
2023/01/25 06:05:04;;;;;;;;;35.25;25.75;;;;;6.59;60.78;102950.44;5095282;27;46230;-63
2023/01/25 06:07:35;;;;;;;;;26.25;22.00;;;;;6.54;60.34;102944.78;5095735;27;45492;-64
2023/01/25 06:10:00;;;;;;;;;34.00;26.50;;;;;6.45;60.10;102938.72;5092956;27;45926;-63
2023/01/25 06:12:26;;;;;;;;;18.25;18.25;;;;;6.49;60.71;102946.16;5094117;27;45434;-64
2023/01/25 06:14:52;;;;;;;;;32.75;24.25;;;;;6.49;60.77;102940.84;5094166;27;45960;-64
2023/01/25 06:17:17;;;;;;;;;32.25;23.75;;;;;6.46;61.41;102943.25;5088474;27;45640;-64
2023/01/25 06:19:43;;;;;;;;;30.00;20.50;;;;;6.52;61.05;102956.09;5093386;27;45377;-64
2023/01/25 06:22:09;;;;;;;;;25.25;21.00;;;;;6.46;60.77;102949.47;5093233;27;45470;-62
2023/01/25 06:24:34;;;;;;;;;25.25;23.00;;;;;6.49;60.87;102951.47;5095418;27;46582;-63
2023/01/25 06:26:59;;;;;;;;;35.00;25.75;;;;;6.42;61.05;102950.06;5095894;27;45451;-65
2023/01/25 06:29:25;;;;;;;;;28.25;18.75;;;;;6.42;60.90;102950.06;5094635;27;45593;-63
2023/01/25 06:31:50;;;;;;;;;36.50;26.00;;;;;6.43;60.48;102950.97;5096086;27;45386;-63
2023/01/25 06:34:15;;;;;;;;;29.00;21.50;;;;;6.35;60.56;102925.53;5095463;27;45352;-64
2023/01/25 06:36:41;;;;;;;;;27.25;18.25;;;;;6.40;60.42;102938.41;5095712;27;45505;-63
2023/01/25 06:39:07;;;;;;;;;24.00;21.75;;;;;6.46;60.91;102945.91;5076992;27;45511;-65
2023/01/25 06:41:32;;;;;;;;;16.25;14.50;;;;;6.48;60.85;102943.38;5090354;27;46219;-65
2023/01/25 06:43:58;;;;;;;;;16.00;15.00;;;;;6.54;60.50;102949.16;5090873;27;46539;-64
2023/01/25 06:46:23;;;;;;;;;36.75;18.25;;;;;6.58;60.30;102945.94;5094438;27;45849;-65
2023/01/25 06:48:48;;;;;;;;;21.50;15.75;;;;;6.61;59.99;102947.09;5093074;27;46583;-63
2023/01/25 06:51:15;;;;;;;;;18.25;17.50;;;;;6.63;60.12;102944.56;5095786;27;45530;-65
2023/01/25 06:53:42;;;;;;;;;19.00;15.00;;;;;6.66;59.93;102939.50;5091645;27;45328;-65
2023/01/25 06:56:13;;;;;;;;;19.75;17.00;;;;;6.65;59.28;102940.31;5092797;27;46085;-64
2023/01/25 06:58:39;;;;;;;;;16.75;16.00;;;;;6.63;59.72;102934.88;5093810;27;45343;-65
2023/01/25 07:01:10;;;;;;;;;28.00;21.25;;;;;6.61;59.26;102928.50;5088301;27;46051;-65
2023/01/25 07:03:35;;;;;;;;;14.50;14.50;;;;;6.58;59.51;102916.72;5093950;27;46395;-65
2023/01/25 07:06:04;;;;;;;;;21.00;17.25;;;;;6.66;59.20;102936.84;5092097;27;45549;-64
2023/01/25 07:08:31;;;;;;;;;18.00;16.00;;;;;6.70;59.23;102930.03;5091295;27;46085;-63
2023/01/25 07:10:58;;;;;;;;;19.25;17.50;;;;;6.64;59.35;102917.19;5093734;27;45787;-65
2023/01/25 07:13:25;;;;;;;;;24.75;22.00;;;;;6.67;59.11;102922.75;5090453;27;45747;-66
2023/01/25 07:15:59;;;;;;;;;24.00;19.50;;;;;6.70;58.84;102928.31;5095006;27;45409;-65
2023/01/25 07:18:27;;;;;;;;;23.25;16.50;;;;;6.64;58.55;102926.09;5093275;27;45397;-63
2023/01/25 07:20:53;;;;;;;;;19.50;17.75;;;;;6.54;59.30;102922.63;5095159;27;45296;-65
2023/01/25 07:23:19;;;;;;;;;28.75;20.50;;;;;6.58;58.93;102938.91;5094647;27;45855;-65
2023/01/25 07:25:47;;;;;;;;;20.00;17.25;;;;;6.55;58.56;102935.06;5095142;27;45587;-63
2023/01/25 07:28:13;;;;;;;;;16.75;16.25;;;;;6.52;58.47;102926.88;5090970;27;45658;-65
2023/01/25 07:30:40;;;;;;;;;19.25;16.50;;;;;6.46;58.93;102930.88;5093291;27;46044;-64
2023/01/25 07:33:05;;;;;;;;;20.75;15.00;;;;;6.46;59.00;102929.97;5088984;27;45658;-63
2023/01/25 07:35:31;;;;;;;;;25.00;13.75;;;;;6.39;58.80;102933.88;5093082;27;45495;-65
2023/01/25 07:37:56;;;;;;;;;18.75;14.00;;;;;6.40;59.15;102938.41;5088999;27;45334;-64
2023/01/25 07:40:24;;;;;;;;;14.75;14.25;;;;;6.37;59.09;102930.19;5095036;27;45538;-63
2023/01/25 07:42:50;;;;;;;;;17.75;15.00;;;;;6.39;59.12;102922.34;5089259;27;45458;-64
2023/01/25 07:45:15;;;;;;;;;26.25;16.00;;;;;6.44;59.16;102931.59;5091921;27;45245;-65
2023/01/25 07:47:41;;;;;;;;;20.25;15.00;;;;;6.48;59.28;102931.00;5090146;27;45376;-63
2023/01/25 07:50:07;;;;;;;;;24.75;20.00;;;;;6.49;58.62;102930.22;5090517;27;45532;-64
2023/01/25 07:52:32;;;;;;;;;21.50;17.75;;;;;6.50;58.97;102932.06;5089421;27;46154;-65
2023/01/25 07:54:58;;;;;;;;;20.25;16.50;;;;;6.52;59.15;102922.50;5074948;27;45471;-65
2023/01/25 07:57:24;;;;;;;;;29.00;16.75;;;;;6.53;58.53;102926.06;5092508;27;46820;-64
2023/01/25 07:59:50;;;;;;;;;16.00;12.75;;;;;6.52;58.52;102933.13;5095573;27;45488;-65
2023/01/25 08:02:15;;;;;;;;;16.25;15.75;;;;;6.42;58.76;102918.19;5092800;27;46924;-65
2023/01/25 08:04:41;;;;;;;;;26.25;21.25;;;;;6.51;58.62;102939.22;5089899;27;45434;-65
2023/01/25 08:07:07;;;;;;;;;17.25;14.75;;;;;6.42;58.62;102933.22;5091308;27;46745;-65
2023/01/25 08:09:32;;;;;;;;;22.25;21.75;;;;;6.42;58.78;102930.56;5087332;27;45236;-64
2023/01/25 08:11:57;;;;;;;;;26.75;23.00;;;;;6.52;58.99;102935.78;5092157;27;46519;-64
2023/01/25 08:14:23;;;;;;;;;37.75;31.25;;;;;6.55;58.88;102932.41;5092586;27;45442;-65
2023/01/25 08:16:49;;;;;;;;;48.50;32.50;;;;;6.52;58.77;102933.13;5090053;27;45724;-64
2023/01/25 08:19:14;;;;;;;;;23.50;22.00;;;;;6.39;58.37;102912.63;5090400;27;45643;-66
2023/01/25 08:21:40;;;;;;;;;19.00;16.00;;;;;6.47;58.57;102931.84;5094913;27;46113;-65
2023/01/25 08:24:07;;;;;;;;;22.50;17.00;;;;;6.48;58.82;102935.41;5090539;27;45752;-65
2023/01/25 08:26:34;;;;;;;;;20.25;16.25;;;;;6.43;58.00;102929.72;5090041;27;45648;-65
2023/01/25 08:29:00;;;;;;;;;28.50;17.25;;;;;6.42;57.95;102927.91;5089623;27;45584;-65
2023/01/25 08:31:28;;;;;;;;;21.00;17.00;;;;;6.35;58.31;102923.84;5091726;27;45552;-65
2023/01/25 08:33:54;;;;;;;;;15.75;15.75;;;;;6.33;58.23;102920.13;5088061;27;45729;-66
2023/01/25 08:36:22;;;;;;;;;22.75;21.00;;;;;6.34;58.70;102926.38;5069096;27;45519;-66
2023/01/25 08:38:52;;;;;;;;;34.00;30.25;;;;;6.21;58.90;102911.19;5093769;27;45479;-66
2023/01/25 08:41:21;;;;;;;;;28.75;26.00;;;;;6.26;58.95;102920.44;5079870;27;48411;-64
2023/01/25 08:43:46;;;;;;;;;32.75;21.25;;;;;6.18;58.26;102914.53;5109288;27;44976;-65
2023/01/25 08:46:13;;;;;;;;;27.75;23.25;;;;;6.18;59.21;102925.13;5108036;27;46290;-66
2023/01/25 08:48:39;;;;;;;;;32.75;23.50;;;;;6.16;59.25;102918.78;5108913;27;45468;-65
2023/01/25 08:51:07;;;;;;;;;45.50;36.50;;;;;6.18;59.28;102921.56;5104463;27;45215;-65
2023/01/25 08:53:32;;;;;;;;;26.25;23.50;;;;;6.20;59.17;102919.97;5107924;27;45139;-65
2023/01/25 08:56:03;;;;;;;;;25.00;22.50;;;;;6.19;59.31;102919.03;5107092;27;45641;-65
2023/01/25 08:58:28;;;;;;;;;28.25;19.50;;;;;6.13;59.79;102909.66;5098444;27;45419;-64
2023/01/25 09:01:01;;;;;;;;;25.75;23.25;;;;;6.14;59.89;102915.09;5097512;27;45779;-67
2023/01/25 09:03:27;;;;;;;;;26.00;20.50;;;;;6.13;59.17;102907.94;5076774;27;45344;-64
2023/01/25 09:05:52;;;;;;;;;25.75;21.75;;;;;6.05;59.50;102898.44;5090745;27;45388;-63
2023/01/25 09:08:18;;;;;;;;;18.50;14.50;;;;;6.12;59.48;102913.13;5094812;27;45609;-66
2023/01/25 09:10:43;;;;;;;;;28.00;21.00;;;;;6.15;59.78;102919.59;5091028;27;46272;-65
2023/01/25 09:13:09;;;;;;;;;32.50;27.50;;;;;6.18;59.39;102913.59;5088638;27;45767;-64
2023/01/25 09:15:34;;;;;;;;;46.50;35.00;;;;;6.22;59.57;102915.69;5091920;27;45468;-66
2023/01/25 09:17:59;;;;;;;;;28.25;24.50;;;;;6.08;59.00;102891.63;5092434;27;45601;-64
2023/01/25 09:20:25;;;;;;;;;26.00;22.25;;;;;6.20;58.94;102909.34;5074800;27;45618;-66
2023/01/25 09:22:51;;;;;;;;;35.75;25.75;;;;;6.24;59.69;102906.13;5086580;27;45480;-65
2023/01/25 09:25:16;;;;;;;;;29.50;22.25;;;;;6.30;59.20;102906.59;5087891;27;45492;-66
2023/01/25 09:27:41;;;;;;;;;20.75;20.75;;;;;6.29;58.93;102912.72;5079463;27;45413;-66
2023/01/25 09:30:09;;;;;;;;;31.50;25.75;;;;;6.16;59.14;102908.19;5089218;27;45624;-66
2023/01/25 09:32:35;;;;;;;;;24.00;20.50;;;;;6.16;58.78;102908.19;5094820;27;45537;-66
2023/01/25 09:35:00;;;;;;;;;32.50;27.50;;;;;6.19;59.35;102910.16;5094680;27;45394;-64
2023/01/25 09:37:26;;;;;;;;;43.50;28.50;;;;;6.20;58.83;102906.69;5095654;27;45670;-65
2023/01/25 09:39:51;;;;;;;;;25.25;23.25;;;;;6.12;59.23;102905.16;5076018;27;47992;-66
2023/01/25 09:42:41;;;;;;;;;41.75;38.25;;;;;6.14;59.13;102912.44;5095407;27;45566;-66
2023/01/25 09:45:11;;;;;;;;;25.00;18.75;;;;;6.12;58.40;102907.81;5095784;27;45555;-65
2023/01/25 09:47:58;;;;;;;;;23.25;20.75;;;;;6.05;59.23;102901.09;5096628;27;45343;-64
2023/01/25 09:50:34;;;;;;;;;30.75;23.25;;;;;6.08;58.56;102909.28;5072415;27;46351;-64
2023/01/25 09:53:20;;;;;;;;;31.25;24.75;;;;;6.09;58.92;102914.72;5096334;27;45503;-64
2023/01/25 09:55:52;;;;;;;;;27.50;24.50;;;;;6.02;58.52;102907.09;5096157;27;45667;-66
2023/01/25 09:58:23;;;;;;;;;31.75;26.00;;;;;6.03;58.77;102913.31;5096799;27;45553;-66
2023/01/25 10:01:18;;;;;;;;;40.25;29.75;;;;;6.04;59.04;102918.75;5096549;27;45403;-65
2023/01/25 10:03:52;;;;;;;;;21.00;16.75;;;;;6.04;58.40;102910.78;5051391;28;45560;-67
2023/01/25 10:06:22;;;;;;;;;24.75;20.75;;;;;5.94;59.33;102900.22;5055660;28;45410;-65
2023/01/25 10:09:29;;;;;;;;;18.25;15.50;;;;;6.01;58.51;102907.88;5055721;28;45521;-65
2023/01/25 10:12:04;;;;;;;;;29.00;26.25;;;;;6.04;58.71;102907.22;5047910;28;46571;-65
2023/01/25 10:14:34;;;;;;;;;30.25;21.25;;;;;6.07;58.63;102907.44;5053438;28;45532;-65
2023/01/25 10:17:16;;;;;;;;;26.25;21.50;;;;;6.14;58.34;102914.16;5055951;28;45267;-66
2023/01/25 10:20:06;;;;;;;;;26.50;23.25;;;;;6.13;58.66;102913.25;5052367;28;45379;-64
2023/01/25 10:22:40;;;;;;;;;26.00;22.00;;;;;6.15;58.37;102910.72;5050056;28;45620;-65
2023/01/25 10:25:12;;;;;;;;;30.25;24.75;;;;;6.16;58.46;102913.47;5047271;28;45405;-65
2023/01/25 10:27:54;;;;;;;;;30.75;26.00;;;;;6.15;58.40;102916.94;5049461;28;45563;-65
2023/01/25 10:30:27;;;;;;;;;26.25;21.00;;;;;6.13;58.60;102913.25;5053656;28;45541;-64
2023/01/25 10:32:58;;;;;;;;;31.00;27.25;;;;;6.17;59.11;102914.41;5054922;28;46627;-64
2023/01/25 10:35:29;;;;;;;;;32.25;25.50;;;;;6.10;58.49;102894.41;5049984;28;45355;-63
2023/01/25 10:38:00;;;;;;;;;27.75;26.25;;;;;6.16;58.16;102909.91;5055236;28;45495;-65
2023/01/25 10:40:34;;;;;;;;;29.75;28.00;;;;;6.15;58.06;102910.72;5053948;28;45330;-63
2023/01/25 10:43:02;;;;;;;;;28.75;25.75;;;;;5.97;58.30;102902.22;5047919;28;46410;-65
2023/01/25 10:45:28;;;;;;;;;34.00;26.50;;;;;6.01;58.87;102902.56;5055157;28;45473;-65
2023/01/25 10:48:08;;;;;;;;;31.75;24.50;;;;;5.95;59.22;102891.44;5055115;28;45487;-62
2023/01/25 10:50:42;;;;;;;;;32.25;25.75;;;;;6.02;58.65;102901.78;5055296;28;45491;-64
2023/01/25 10:53:34;;;;;;;;;33.75;28.50;;;;;6.01;58.61;102906.97;5055249;28;46572;-63
2023/01/25 10:56:21;;;;;;;;;28.25;22.00;;;;;6.03;58.58;102906.28;5054692;28;45592;-65
2023/01/25 10:58:49;;;;;;;;;27.00;20.50;;;;;5.95;58.25;102891.44;5052598;28;45528;-65
2023/01/25 11:01:32;;;;;;;;;35.25;27.00;;;;;5.99;58.62;102889.97;5055745;27;45687;-65
2023/01/25 11:04:00;;;;;;;;;43.25;36.00;;;;;6.05;58.61;102888.72;5094943;27;45519;-64
2023/01/25 11:06:45;;;;;;;;;48.50;37.75;;;;;6.07;58.32;102888.84;5095510;27;45455;-64
2023/01/25 11:09:19;;;;;;;;;32.50;23.00;;;;;6.01;57.83;102883.09;5093480;27;45506;-63
2023/01/25 11:11:56;;;;;;;;;33.00;25.25;;;;;5.87;58.23;102864.31;5095746;27;45484;-65
2023/01/25 11:14:27;;;;;;;;;23.75;22.75;;;;;5.96;58.30;102884.44;5091487;27;46118;-64
2023/01/25 11:16:54;;;;;;;;;28.50;20.50;;;;;5.97;58.22;102871.28;5091260;27;45945;-64
2023/01/25 11:19:24;;;;;;;;;32.75;26.25;;;;;6.00;58.38;102874.19;5095112;27;45527;-66
2023/01/25 11:21:54;;;;;;;;;25.75;20.50;;;;;5.99;57.90;102866.09;5095438;27;45384;-64
2023/01/25 11:24:34;;;;;;;;;27.75;24.00;;;;;6.01;57.87;102860.13;5083408;27;48336;-65